Hauptseite
METAR-TAF:

METAR-TAF

Flughäfen :

Friedrichshafen, Deutschland

Flughafen Friedrichshafen

Breite: 47-40N, Länge: 009-31E, Höhe: 416 m

Beobachtung

Neuester Wetterbericht von vor 14 Minuten, um 01:20 UTC
Wind 14 kt aus Nord
Temperatur -5°C
Luftfeuchtigkeit 63%
Luftdruck 1016 hPa
Sichtweite 10 km oder mehr

METAR: EDNY 250120Z AUTO 01014KT 9999 // OVC035/// M05/M11 Q1016

Zeit: 02:34 (01:34 UTC)

Prognose

Neuester Wetterbericht von vor 2 Stunden und 34 Minuten, um 23:00 UTC
Gültige Prognose vom 25 um 00 UTC bis 25 um 24 UTC
Wind 15 kt aus Nord/Nordost, Böen bis zu 25 kt
Sichtweite 10 km oder mehr
Durchbrochene Bewölkung in der Höhe von 3000 ft
Übergehend zu
vom 25 um 18 UTC bis 25 um 21 UTC
Wind 10 kt aus Nord/Nordost

TAF: EDNY 242300Z 2500/2524 02015G25KT 9999 BKN030 BECMG 2518/2521 02010KT

Wetterbeobachtungen und Prognosen von mehr als 4000 Flughäfen (METAR und TAF Bericht).

Die verfügbaren Stationen werden durch gelbe und rote Markierungen auf der Karte dargestellt.

Führen Sie die Maus auf sie, um den Namen der Station zu sehen.

Darauf klicken, um die Beobachtung von Wetterbeobachtungen und Prognosen zu sehen.

Um die Karte zu ändern : klicken Sie auf den grünen Tasten mit einem schwarzen Kreuz Zum Vergrößern, auf den grünen Button mit einem Gedankenstrich zu verkleinern, oder auf die grünen Pfeile für benachbarte Karten.


METAR-TAF: